createdAt,value
2019-05-12T00:01:30.431Z,97729.00
2019-05-12T00:04:01.830Z,97722.00
2019-05-12T00:06:33.174Z,97722.00
2019-05-12T00:09:08.401Z,97731.00
2019-05-12T00:11:40.302Z,97726.00
2019-05-12T00:14:11.647Z,97732.00
2019-05-12T00:16:44.065Z,97721.00
2019-05-12T00:19:17.807Z,97746.00
2019-05-12T00:21:48.512Z,97743.00
2019-05-12T00:24:19.850Z,97750.00
2019-05-12T00:26:52.963Z,97750.00
2019-05-12T00:29:24.455Z,97768.00
2019-05-12T00:31:57.916Z,97777.00
2019-05-12T00:34:29.044Z,97777.00
2019-05-12T00:37:00.400Z,97773.00
2019-05-12T00:39:31.753Z,97762.00
2019-05-12T00:42:03.109Z,97772.00
2019-05-12T00:44:34.458Z,97778.00
2019-05-12T00:47:08.039Z,97787.00
2019-05-12T00:49:38.975Z,97786.00
2019-05-12T00:52:10.311Z,97786.00
2019-05-12T00:54:41.699Z,97788.00
2019-05-12T00:57:13.035Z,97803.00
2019-05-12T00:59:44.463Z,97807.00
2019-05-12T01:02:15.809Z,97806.00
2019-05-12T01:04:48.646Z,97820.00
2019-05-12T01:07:20.185Z,97811.00
2019-05-12T01:09:51.643Z,97808.00
2019-05-12T01:12:23.055Z,97831.00
2019-05-12T01:14:54.405Z,97834.00
2019-05-12T01:17:28.091Z,97840.00
2019-05-12T01:19:58.873Z,97830.00
2019-05-12T01:22:30.274Z,97829.00
2019-05-12T01:25:01.633Z,97850.00
2019-05-12T01:27:33.115Z,97850.00
2019-05-12T01:30:04.865Z,97839.00
2019-05-12T01:32:38.385Z,97848.00
2019-05-12T01:35:10.477Z,97841.00
2019-05-12T01:37:41.798Z,97862.00
2019-05-12T01:40:13.504Z,97860.00
2019-05-12T01:42:44.843Z,97865.00
2019-05-12T01:45:18.038Z,97866.00
2019-05-12T01:47:49.271Z,97870.00
2019-05-12T01:50:20.651Z,97867.00
2019-05-12T01:52:51.956Z,97861.00
2019-05-12T01:55:23.339Z,97876.00
2019-05-12T01:57:54.641Z,97877.00
2019-05-12T02:00:28.195Z,97886.00
2019-05-12T02:02:59.043Z,97888.00
2019-05-12T02:05:30.428Z,97894.00
2019-05-12T02:08:02.022Z,97905.00
2019-05-12T02:10:33.362Z,97922.00
2019-05-12T02:13:04.677Z,97923.00
2019-05-12T02:15:38.065Z,97931.00
2019-05-12T02:18:09.368Z,97930.00
2019-05-12T02:20:40.709Z,97941.00
2019-05-12T02:23:12.074Z,97938.00
2019-05-12T02:25:43.432Z,97949.00
2019-05-12T02:28:14.772Z,97958.00
2019-05-12T02:30:49.934Z,97959.00
2019-05-12T02:33:19.262Z,97974.00
2019-05-12T02:35:50.572Z,97981.00
2019-05-12T02:38:24.974Z,97984.00
2019-05-12T02:40:55.593Z,97998.00
2019-05-12T02:43:26.901Z,98006.00
2019-05-12T02:45:58.224Z,98008.00
2019-05-12T02:48:29.569Z,98000.00
2019-05-12T02:51:01.086Z,98000.00
2019-05-12T02:53:35.160Z,98014.00
2019-05-12T02:56:07.367Z,98035.00
2019-05-12T02:58:40.914Z,98039.00
2019-05-12T03:01:15.276Z,98039.00
2019-05-12T03:03:47.957Z,98034.00
2019-05-12T03:06:20.966Z,98054.00
2019-05-12T03:08:55.123Z,98046.00
2019-05-12T03:11:28.697Z,98060.00
2019-05-12T03:14:00.013Z,98058.00
2019-05-12T03:16:34.661Z,98067.00
2019-05-12T03:19:05.234Z,98077.00
2019-05-12T03:21:36.838Z,98083.00
2019-05-12T03:24:08.095Z,98083.00
2019-05-12T03:26:39.457Z,98097.00
2019-05-12T03:29:10.774Z,98083.00
2019-05-12T03:31:47.873Z,98112.00
2019-05-12T03:34:19.326Z,98116.00
2019-05-12T03:36:51.876Z,98112.00
2019-05-12T03:39:25.105Z,98119.00
2019-05-12T03:41:55.338Z,98129.00
2019-05-12T03:44:26.676Z,98133.00
2019-05-12T03:46:58.114Z,98136.00
2019-05-12T03:49:29.477Z,98131.00
2019-05-12T03:52:00.936Z,98136.00
2019-05-12T03:54:34.922Z,98142.00
2019-05-12T03:57:05.344Z,98161.00
2019-05-12T03:59:36.666Z,98165.00
2019-05-12T04:02:08.048Z,98160.00
2019-05-12T04:04:39.388Z,98167.00
2019-05-12T04:07:10.773Z,98174.00
2019-05-12T04:09:44.970Z,98186.00
2019-05-12T04:12:15.180Z,98175.00
2019-05-12T04:14:46.554Z,98190.00
2019-05-12T04:17:17.921Z,98174.00
2019-05-12T04:19:49.354Z,98172.00
2019-05-12T04:22:20.719Z,98189.00
2019-05-12T04:24:54.886Z,98177.00
2019-05-12T04:27:25.416Z,98182.00
2019-05-12T04:29:56.751Z,98199.00
2019-05-12T04:32:28.087Z,98198.00
2019-05-12T04:34:59.389Z,98192.00
2019-05-12T04:37:30.815Z,98212.00
2019-05-12T04:40:05.106Z,98212.00
2019-05-12T04:42:35.335Z,98214.00
2019-05-12T04:45:07.214Z,98221.00
2019-05-12T04:47:38.537Z,98226.00
2019-05-12T04:50:10.209Z,98221.00
2019-05-12T04:52:44.592Z,98226.00
2019-05-12T04:55:15.352Z,98228.00
2019-05-12T04:57:46.795Z,98227.00
2019-05-12T05:00:18.283Z,98224.00
2019-05-12T05:02:49.653Z,98224.00
2019-05-12T05:05:20.995Z,98235.00
2019-05-12T05:07:54.883Z,98238.00
2019-05-12T05:10:25.356Z,98246.00
2019-05-12T05:12:56.644Z,98237.00
2019-05-12T05:15:27.960Z,98255.00
2019-05-12T05:17:59.318Z,98261.00
2019-05-12T05:20:30.643Z,98261.00
2019-05-12T05:23:03.510Z,98265.00
2019-05-12T05:25:35.897Z,98284.00
2019-05-12T05:28:07.203Z,98280.00
2019-05-12T05:30:38.523Z,98285.00
2019-05-12T05:33:09.846Z,98281.00
2019-05-12T05:35:43.484Z,98296.00
2019-05-12T05:38:19.201Z,98296.00
2019-05-12T05:40:47.457Z,98302.00
2019-05-12T05:43:18.970Z,98304.00
2019-05-12T05:45:54.578Z,98307.00
2019-05-12T05:48:24.102Z,98330.00
2019-05-12T05:50:59.860Z,98329.00
2019-05-12T05:53:28.661Z,98326.00
2019-05-12T05:56:00.510Z,98334.00
2019-05-12T05:58:33.941Z,98327.00
2019-05-12T06:01:08.070Z,98324.00
2019-05-12T06:03:38.000Z,98340.00
2019-05-12T06:06:12.302Z,98333.00
2019-05-12T06:08:44.853Z,98331.00
2019-05-12T06:11:23.850Z,98337.00
2019-05-12T06:13:49.331Z,98340.00
2019-05-12T06:16:22.967Z,98335.00
2019-05-12T06:18:54.420Z,98355.00
2019-05-12T06:21:29.052Z,98368.00
2019-05-12T06:23:58.983Z,98378.00
2019-05-12T06:26:34.867Z,98363.00
2019-05-12T06:29:04.417Z,98359.00
2019-05-12T06:31:37.670Z,98378.00
2019-05-12T06:34:15.179Z,98374.00
2019-05-12T06:36:44.101Z,98381.00
2019-05-12T06:39:18.602Z,98381.00
2019-05-12T06:41:48.255Z,98387.00
2019-05-12T06:44:19.822Z,98388.00
2019-05-12T06:47:02.533Z,98384.00
2019-05-12T06:49:27.175Z,98384.00
2019-05-12T06:52:01.585Z,98391.00
2019-05-12T06:54:33.548Z,98403.00
2019-05-12T06:57:21.035Z,98397.00
2019-05-12T06:59:42.007Z,98396.00
2019-05-12T07:02:10.792Z,98406.00
2019-05-12T07:04:49.728Z,98399.00
2019-05-12T07:07:15.301Z,98404.00
2019-05-12T07:09:53.786Z,98417.00
2019-05-12T07:12:24.925Z,98413.00
2019-05-12T07:14:55.616Z,98425.00
2019-05-12T07:17:43.768Z,98413.00
2019-05-12T07:20:14.743Z,98420.00
2019-05-12T07:22:48.537Z,98421.00
2019-05-12T07:25:22.798Z,98422.00
2019-05-12T07:27:55.252Z,98435.00
2019-05-12T07:30:34.992Z,98435.00
2019-05-12T07:33:05.484Z,98428.00
2019-05-12T07:35:36.831Z,98435.00
2019-05-12T07:38:12.154Z,98429.00
2019-05-12T07:40:45.826Z,98433.00
2019-05-12T07:43:24.143Z,98420.00
2019-05-12T07:46:02.215Z,98444.00
2019-05-12T07:48:33.597Z,98434.00
2019-05-12T07:51:05.016Z,98452.00
2019-05-12T07:53:36.426Z,98457.00
2019-05-12T07:56:08.348Z,98466.00
2019-05-12T07:58:40.906Z,98466.00
2019-05-12T08:01:14.626Z,98475.00
2019-05-12T08:03:45.902Z,98469.00
2019-05-12T08:06:17.437Z,98475.00
2019-05-12T08:08:50.576Z,98479.00
2019-05-12T08:11:23.605Z,98485.00
2019-05-12T08:13:55.121Z,98485.00
2019-05-12T08:16:29.713Z,98494.00
2019-05-12T08:18:59.521Z,98506.00
2019-05-12T08:21:34.918Z,98512.00
2019-05-12T08:24:04.056Z,98501.00
2019-05-12T08:26:35.536Z,98491.00
2019-05-12T08:29:10.452Z,98502.00
2019-05-12T08:31:40.841Z,98482.00
2019-05-12T08:34:13.683Z,98491.00
2019-05-12T08:36:53.106Z,98502.00
2019-05-12T08:39:22.888Z,98509.00
2019-05-12T08:41:53.558Z,98505.00
2019-05-12T08:44:33.905Z,98502.00
2019-05-12T08:46:58.037Z,98501.00
2019-05-12T08:49:34.082Z,98497.00
2019-05-12T08:52:03.844Z,98514.00
2019-05-12T08:54:39.760Z,98513.00
2019-05-12T08:57:08.478Z,98528.00
2019-05-12T08:59:39.920Z,98530.00
2019-05-12T09:02:13.731Z,98530.00
2019-05-12T09:04:51.521Z,98536.00
2019-05-12T09:07:17.753Z,98539.00
2019-05-12T09:09:50.014Z,98544.00
2019-05-12T09:12:23.337Z,98555.00
2019-05-12T09:14:54.646Z,98554.00
2019-05-12T09:17:26.131Z,98561.00
2019-05-12T09:20:06.075Z,98557.00
2019-05-12T09:22:30.630Z,98552.00
2019-05-12T09:25:06.174Z,98555.00
2019-05-12T09:27:39.495Z,98552.00
2019-05-12T09:30:09.814Z,98554.00
2019-05-12T09:32:48.598Z,98572.00
2019-05-12T09:35:14.517Z,98566.00
2019-05-12T09:37:45.924Z,98564.00
2019-05-12T09:40:20.730Z,98579.00
2019-05-12T09:42:50.357Z,98574.00
2019-05-12T09:45:21.748Z,98571.00
2019-05-12T09:47:53.997Z,98578.00
2019-05-12T09:50:25.408Z,98577.00
2019-05-12T09:53:00.955Z,98579.00
2019-05-12T09:55:30.795Z,98578.00
2019-05-12T09:58:03.976Z,98579.00
2019-05-12T10:00:36.228Z,98585.00
2019-05-12T10:03:08.820Z,98596.00
2019-05-12T10:05:44.190Z,98591.00
2019-05-12T10:08:15.770Z,98610.00
2019-05-12T10:10:47.293Z,98596.00
2019-05-12T10:13:20.346Z,98612.00
2019-05-12T10:15:53.569Z,98609.00
2019-05-12T10:18:24.803Z,98626.00
2019-05-12T10:20:56.157Z,98619.00
2019-05-12T10:23:27.615Z,98616.00
2019-05-12T10:26:01.413Z,98612.00
2019-05-12T10:28:32.160Z,98610.00
2019-05-12T10:31:04.212Z,98622.00
2019-05-12T10:33:36.636Z,98629.00
2019-05-12T10:36:08.638Z,98625.00
2019-05-12T10:38:43.317Z,98635.00
2019-05-12T10:41:14.224Z,98610.00
2019-05-12T10:43:48.416Z,98627.00
2019-05-12T10:46:26.869Z,98620.00
2019-05-12T10:48:53.880Z,98634.00
2019-05-12T10:51:25.269Z,98619.00
2019-05-12T10:54:02.797Z,98614.00
2019-05-12T10:56:29.751Z,98653.00
2019-05-12T10:59:01.133Z,98648.00
2019-05-12T11:01:38.364Z,98653.00
2019-05-12T11:04:06.869Z,98660.00
2019-05-12T11:06:39.668Z,98656.00
2019-05-12T11:09:11.341Z,98637.00
2019-05-12T11:11:46.806Z,98663.00
2019-05-12T11:14:20.232Z,98658.00
2019-05-12T11:16:48.892Z,98647.00
2019-05-12T11:19:20.248Z,98663.00
2019-05-12T11:21:53.657Z,98658.00
2019-05-12T11:24:25.038Z,98661.00
2019-05-12T11:26:56.404Z,98648.00
2019-05-12T11:29:27.746Z,98659.00
2019-05-12T11:31:59.156Z,98649.00
2019-05-12T11:34:30.545Z,98655.00
2019-05-12T11:37:03.442Z,98659.00
2019-05-12T11:39:37.182Z,98656.00
2019-05-12T11:42:07.950Z,98658.00
2019-05-12T11:44:39.327Z,98660.00
2019-05-12T11:47:14.775Z,98663.00
2019-05-12T11:49:44.227Z,98663.00
2019-05-12T11:52:19.119Z,98651.00
2019-05-12T11:54:51.270Z,98642.00
2019-05-12T11:57:26.178Z,98650.00
2019-05-12T12:00:01.498Z,98655.00
2019-05-12T12:02:34.060Z,98656.00
2019-05-12T12:05:05.508Z,98663.00
2019-05-12T12:07:39.402Z,98662.00
2019-05-12T12:10:10.876Z,98658.00
2019-05-12T12:12:45.286Z,98667.00
2019-05-12T12:15:20.540Z,98660.00
2019-05-12T12:17:50.190Z,98660.00
2019-05-12T12:20:22.742Z,98662.00
2019-05-12T12:22:54.707Z,98671.00
2019-05-12T12:25:30.036Z,98648.00
2019-05-12T12:28:01.400Z,98660.00
2019-05-12T12:30:33.894Z,98680.00
2019-05-12T12:33:05.614Z,98667.00
2019-05-12T12:35:36.996Z,98684.00
2019-05-12T12:38:08.350Z,98675.00
2019-05-12T12:40:39.679Z,98668.00
2019-05-12T12:43:11.070Z,98655.00
2019-05-12T12:45:53.677Z,98691.00
2019-05-12T12:48:29.568Z,98692.00
2019-05-12T12:50:59.151Z,98693.00
2019-05-12T12:53:30.555Z,98696.00
2019-05-12T12:56:04.168Z,98702.00
2019-05-12T12:58:34.989Z,98700.00
2019-05-12T13:01:06.592Z,98701.00
2019-05-12T13:03:37.940Z,98709.00
2019-05-12T13:06:09.270Z,98708.00
2019-05-12T13:08:40.594Z,98716.00
2019-05-12T13:11:14.247Z,98716.00
2019-05-12T13:13:45.022Z,98718.00
2019-05-12T13:16:16.383Z,98715.00
2019-05-12T13:18:47.740Z,98727.00
2019-05-12T13:21:19.091Z,98717.00
2019-05-12T13:23:51.189Z,98715.00
2019-05-12T13:26:23.832Z,98721.00
2019-05-12T13:28:55.511Z,98718.00
2019-05-12T13:31:26.871Z,98720.00
2019-05-12T13:33:58.280Z,98721.00
2019-05-12T13:36:35.484Z,98724.00
2019-05-12T13:39:03.052Z,98733.00
2019-05-12T13:41:37.255Z,98737.00
2019-05-12T13:44:08.641Z,98724.00
2019-05-12T13:46:39.989Z,98708.00
2019-05-12T13:49:13.519Z,98717.00
2019-05-12T13:51:48.464Z,98725.00
2019-05-12T13:54:20.175Z,98708.00
2019-05-12T13:56:50.619Z,98725.00
2019-05-12T13:59:25.257Z,98737.00
2019-05-12T14:01:55.041Z,98738.00
2019-05-12T14:04:27.910Z,98736.00
2019-05-12T14:06:59.529Z,98736.00
2019-05-12T14:09:30.907Z,98719.00
2019-05-12T14:12:04.366Z,98734.00
2019-05-12T14:14:35.380Z,98723.00
2019-05-12T14:17:06.808Z,98741.00
2019-05-12T14:19:39.732Z,98733.00
2019-05-12T14:22:12.958Z,98723.00
2019-05-12T14:24:46.791Z,98715.00
2019-05-12T14:27:19.248Z,98714.00
2019-05-12T14:29:53.570Z,98719.00
2019-05-12T14:32:24.456Z,98724.00
2019-05-12T14:34:59.594Z,98717.00
2019-05-12T14:37:29.178Z,98725.00
2019-05-12T14:40:00.513Z,98721.00
2019-05-12T14:42:34.726Z,98709.00
2019-05-12T14:45:05.644Z,98720.00
2019-05-12T14:47:38.970Z,98719.00
2019-05-12T14:50:10.219Z,98709.00
2019-05-12T14:52:43.749Z,98723.00
2019-05-12T14:55:14.653Z,98717.00
2019-05-12T14:57:46.032Z,98710.00
2019-05-12T15:00:21.355Z,98712.00
2019-05-12T15:02:53.984Z,98724.00
2019-05-12T15:05:27.678Z,98720.00
2019-05-12T15:08:00.352Z,98724.00
2019-05-12T15:10:33.662Z,98711.00
2019-05-12T15:13:04.535Z,98716.00
2019-05-12T15:15:35.883Z,98719.00
2019-05-12T15:18:10.111Z,98722.00
2019-05-12T15:20:49.766Z,98711.00
2019-05-12T15:23:15.767Z,98726.00
2019-05-12T15:25:47.137Z,98725.00
2019-05-12T15:28:18.818Z,98712.00
2019-05-12T15:30:50.263Z,98716.00
2019-05-12T15:33:24.102Z,98725.00
2019-05-12T15:35:54.916Z,98720.00
2019-05-12T15:38:26.226Z,98745.00
2019-05-12T15:40:58.120Z,98724.00
2019-05-12T15:43:29.667Z,98726.00
2019-05-12T15:46:02.233Z,98719.00
2019-05-12T15:48:34.294Z,98730.00
2019-05-12T15:51:08.567Z,98724.00
2019-05-12T15:53:38.796Z,98729.00
2019-05-12T15:56:18.472Z,98737.00
2019-05-12T15:58:44.143Z,98740.00
2019-05-12T16:01:17.037Z,98751.00
2019-05-12T16:03:48.533Z,98748.00
2019-05-12T16:06:19.919Z,98756.00
2019-05-12T16:08:53.343Z,98756.00
2019-05-12T16:11:24.593Z,98758.00
2019-05-12T16:13:59.202Z,98762.00
2019-05-12T16:16:36.400Z,98773.00
2019-05-12T16:19:04.515Z,98768.00
2019-05-12T16:21:35.908Z,98770.00
2019-05-12T16:24:10.925Z,98772.00
2019-05-12T16:26:42.981Z,98773.00
2019-05-12T16:29:13.411Z,98777.00
2019-05-12T16:31:49.686Z,98776.00
2019-05-12T16:34:18.116Z,98782.00
2019-05-12T16:36:54.759Z,98797.00
2019-05-12T16:39:30.389Z,98807.00
2019-05-12T16:42:00.023Z,98793.00
2019-05-12T16:44:31.619Z,98800.00
2019-05-12T16:47:04.310Z,98802.00
2019-05-12T16:49:37.380Z,98802.00
2019-05-12T16:52:09.840Z,98813.00
2019-05-12T16:54:41.222Z,98807.00
2019-05-12T16:57:17.299Z,98805.00
2019-05-12T16:59:45.833Z,98813.00
2019-05-12T17:02:17.200Z,98807.00
2019-05-12T17:04:48.593Z,98805.00
2019-05-12T17:07:20.935Z,98823.00
2019-05-12T17:09:54.375Z,98819.00
2019-05-12T17:12:32.047Z,98818.00
2019-05-12T17:14:59.750Z,98815.00
2019-05-12T17:17:33.586Z,98826.00
2019-05-12T17:20:04.938Z,98814.00
2019-05-12T17:22:36.350Z,98826.00
2019-05-12T17:25:10.382Z,98835.00
2019-05-12T17:27:41.173Z,98838.00
2019-05-12T17:30:13.595Z,98843.00
2019-05-12T17:32:57.026Z,98844.00
2019-05-12T17:35:20.327Z,98844.00
2019-05-12T17:37:53.417Z,98840.00
2019-05-12T17:40:24.466Z,98836.00
2019-05-12T17:42:57.617Z,98840.00
2019-05-12T17:45:28.844Z,98850.00
2019-05-12T17:48:02.675Z,98864.00
2019-05-12T17:50:34.595Z,98858.00
2019-05-12T17:53:06.121Z,98861.00
2019-05-12T17:55:42.632Z,98862.00
2019-05-12T17:58:10.603Z,98862.00
2019-05-12T18:00:49.991Z,98873.00
2019-05-12T18:03:22.066Z,98867.00
2019-05-12T18:05:53.351Z,98864.00
2019-05-12T18:08:32.879Z,98870.00
2019-05-12T18:10:57.393Z,98886.00
2019-05-12T18:13:28.768Z,98885.00
2019-05-12T18:16:02.921Z,98885.00
2019-05-12T18:18:37.968Z,98881.00
2019-05-12T18:21:06.680Z,98895.00
2019-05-12T18:23:38.056Z,98889.00
2019-05-12T18:26:16.061Z,98892.00
2019-05-12T18:28:44.255Z,98890.00
2019-05-12T18:31:15.699Z,98902.00
2019-05-12T18:33:51.814Z,98898.00
2019-05-12T18:36:23.523Z,98906.00
2019-05-12T18:38:57.268Z,98914.00
2019-05-12T18:41:27.434Z,98917.00
2019-05-12T18:43:58.800Z,98910.00
2019-05-12T18:46:30.198Z,98920.00
2019-05-12T18:49:05.065Z,98925.00
2019-05-12T18:51:34.787Z,98934.00
2019-05-12T18:54:10.265Z,98936.00
2019-05-12T18:56:39.314Z,98932.00
2019-05-12T18:59:11.871Z,98945.00
2019-05-12T19:01:43.909Z,98949.00
2019-05-12T19:04:15.321Z,98951.00
2019-05-12T19:06:46.698Z,98942.00
2019-05-12T19:09:18.083Z,98958.00
2019-05-12T19:11:49.483Z,98957.00
2019-05-12T19:14:20.843Z,98949.00
2019-05-12T19:16:53.798Z,98965.00
2019-05-12T19:19:25.543Z,98966.00
2019-05-12T19:22:04.804Z,98970.00
2019-05-12T19:24:30.058Z,98966.00
2019-05-12T19:27:01.459Z,98968.00
2019-05-12T19:29:38.790Z,98978.00
2019-05-12T19:32:05.887Z,98981.00
2019-05-12T19:34:37.733Z,98985.00
2019-05-12T19:37:14.147Z,98971.00
2019-05-12T19:39:44.947Z,98979.00
2019-05-12T19:42:20.335Z,99004.00
2019-05-12T19:44:49.476Z,98994.00
2019-05-12T19:47:31.415Z,99000.00
2019-05-12T19:49:53.892Z,99004.00
2019-05-12T19:52:25.266Z,99004.00
2019-05-12T19:54:56.662Z,99010.00
2019-05-12T19:57:29.788Z,99011.00
2019-05-12T20:00:01.201Z,99004.00
2019-05-12T20:02:34.222Z,99002.00
2019-05-12T20:05:06.768Z,98999.00
2019-05-12T20:07:38.148Z,99012.00
2019-05-12T20:10:12.625Z,99006.00
2019-05-12T20:12:43.615Z,99011.00
2019-05-12T20:15:15.479Z,99026.00
2019-05-12T20:17:48.767Z,99014.00
2019-05-12T20:20:26.749Z,99021.00
2019-05-12T20:22:54.327Z,99013.00
2019-05-12T20:25:25.634Z,99021.00
2019-05-12T20:28:05.793Z,99024.00
2019-05-12T20:30:30.281Z,99018.00
2019-05-12T20:33:04.143Z,99018.00
2019-05-12T20:35:39.191Z,99025.00
2019-05-12T20:38:08.220Z,99029.00
2019-05-12T20:40:39.953Z,99040.00
2019-05-12T20:43:14.616Z,99039.00
2019-05-12T20:45:45.891Z,99042.00
2019-05-12T20:48:19.725Z,99050.00
2019-05-12T20:50:50.383Z,99031.00
2019-05-12T20:53:24.776Z,99028.00
2019-05-12T20:55:54.911Z,99042.00
2019-05-12T20:58:34.015Z,99032.00
2019-05-12T21:01:02.082Z,99041.00
2019-05-12T21:03:33.587Z,99041.00
2019-05-12T21:06:05.040Z,99047.00
2019-05-12T21:08:36.356Z,99048.00
2019-05-12T21:11:07.688Z,99047.00
2019-05-12T21:13:39.037Z,99053.00
2019-05-12T21:16:19.372Z,99047.00
2019-05-12T21:18:49.827Z,99058.00
2019-05-12T21:21:16.726Z,99050.00
2019-05-12T21:23:53.699Z,99056.00
2019-05-12T21:26:21.122Z,99059.00
2019-05-12T21:28:53.879Z,99057.00
2019-05-12T21:31:26.721Z,99059.00
2019-05-12T21:33:58.362Z,99055.00
2019-05-12T21:36:29.867Z,99053.00
2019-05-12T21:39:06.074Z,99074.00
2019-05-12T21:41:40.613Z,99061.00
2019-05-12T21:44:11.538Z,99072.00
2019-05-12T21:46:46.843Z,99069.00
2019-05-12T21:49:16.330Z,99065.00
2019-05-12T21:51:50.392Z,99066.00
2019-05-12T21:54:20.784Z,99055.00
2019-05-12T21:56:54.154Z,99070.00
2019-05-12T21:59:28.936Z,99066.00
2019-05-12T22:01:58.427Z,99077.00
2019-05-12T22:04:35.281Z,99075.00
2019-05-12T22:07:03.970Z,99073.00
2019-05-12T22:09:41.796Z,99079.00
2019-05-12T22:12:08.925Z,99076.00
2019-05-12T22:14:40.982Z,99084.00
2019-05-12T22:17:14.439Z,99079.00
2019-05-12T22:19:45.760Z,99072.00
2019-05-12T22:22:19.510Z,99081.00
2019-05-12T22:24:53.614Z,99080.00
2019-05-12T22:27:27.249Z,99083.00
2019-05-12T22:29:57.200Z,99088.00
2019-05-12T22:32:29.747Z,99081.00
2019-05-12T22:35:03.729Z,99092.00
2019-05-12T22:37:34.823Z,99077.00
2019-05-12T22:40:15.170Z,99073.00
2019-05-12T22:42:40.467Z,99082.00
2019-05-12T22:45:15.142Z,99080.00
2019-05-12T22:47:49.245Z,99076.00
2019-05-12T22:50:21.410Z,99082.00
2019-05-12T22:52:53.274Z,99090.00
2019-05-12T22:55:27.713Z,99083.00
2019-05-12T22:57:57.769Z,99093.00
2019-05-12T23:00:29.335Z,99088.00
2019-05-12T23:03:06.294Z,99103.00
2019-05-12T23:05:33.850Z,99094.00
2019-05-12T23:08:06.457Z,99094.00
2019-05-12T23:10:41.499Z,99108.00
2019-05-12T23:13:14.204Z,99107.00
2019-05-12T23:15:49.366Z,99102.00
2019-05-12T23:18:26.890Z,99095.00
2019-05-12T23:20:54.126Z,99111.00
2019-05-12T23:23:26.551Z,99111.00
2019-05-12T23:26:00.606Z,99111.00
2019-05-12T23:28:30.977Z,99107.00
2019-05-12T23:31:04.281Z,99109.00
2019-05-12T23:33:36.790Z,99099.00
2019-05-12T23:36:09.566Z,99103.00
2019-05-12T23:38:41.277Z,99118.00
2019-05-12T23:41:13.540Z,99113.00
2019-05-12T23:43:45.040Z,99104.00
2019-05-12T23:46:16.363Z,99102.00
2019-05-12T23:48:47.701Z,99100.00
2019-05-12T23:51:19.068Z,99114.00
2019-05-12T23:53:50.474Z,99111.00
2019-05-12T23:56:21.832Z,99101.00
2019-05-12T23:58:53.838Z,99097.00
